首页
METAR-TAF:

METAR-TAF

机场 :

君士坦丁, 阿尔及利亚

纬度: 36-17N, 经度: 006-37E, 海拔: 694米

当前天气观测

该预报发布于26分钟前的05:00 UTC
风速9节,风向
温度 9°C
湿度 93%
气压 1012 hPa
能见度10公里或以上
散云层高于3000英尺
多云层高于10000英尺

METAR: DABC 020500Z 36009KT 9999 SCT030 BKN100 09/08 Q1012

时间: 06:26 (05:26 UTC)

预报

该预报发布于6小时和26分钟前的23:00 UTC
预报有效从02日的 00点(UTC)到 02日的 24点(UTC)
风速8节,风向北转西北
能见度10公里或以上
散云层高于3000英尺
散云层高于10000英尺
几率 40% :
短暂存在
从 02日的 00点(UTC)到 02日的 06点(UTC)
风速2节,风向多变
能見度: 2000
多云层高于1000英尺
轻雾
几率 30% :
短暂存在
从 02日的 00点(UTC)到 02日的 05点(UTC)
能見度: 0200
短暂存在
从 02日的 09点(UTC)到 02日的 21点(UTC)
能見度: 5000
少量云层高于2300英尺, 塔状积云.
多云层高于3000英尺

TAF: DABC 012300Z 0200/0224 34008KT 9999 SCT030 SCT100 PROB40 TEMPO 0200/0206 VRB02KT 2000 BR BKN010 PROB30 TEMPO 0200/0205 0200 FG TEMPO 0209/0221 5000 RA FEW023TCU BKN030

超过4000个机场的气象观测和天气预报(METAR&TAF报告)。

可查询的气象台以黄色和红色小点在地图上表示。

将鼠标移到小点上方,可查看气象台名称。

然后点击查看天气观测和预报。

如需切换地图:点击带黑十字的绿色按钮放大地图;点击带横线的绿色按钮缩小地图;或者点击绿色箭头查看邻近地区的地图。


METAR-TAF: